N227P -KVNY

Flight info

Callsign N227P
Flight time N/A
Altitude VFR
Route
Aircraft PA28/L-VGD/C

Departure

Time N/A
Airport -

Arrival

Time 2026-05-04 01:00
Airport Van Nuys Airport (KVNY)
Time Latitude Longitude Altitude Speed Heading
2026-05-04 01:00 34.20785 -118.48730 777 ft 0 kts 91°
2026-05-04 01:02 34.20786 -118.48729 777 ft 1 kts 36°
2026-05-04 01:03 34.20813 -118.48776 777 ft 0 kts 327°
2026-05-04 01:03 34.20865 -118.48814 779 ft 15 kts 312°
2026-05-04 01:03 34.20993 -118.48836 782 ft 22 kts 356°
2026-05-04 01:04 34.21162 -118.48852 786 ft 25 kts 358°
2026-05-04 01:04 34.21356 -118.48870 791 ft 30 kts 355°
2026-05-04 01:04 34.21495 -118.48884 795 ft 17 kts 355°
2026-05-04 01:04 34.21637 -118.48914 798 ft 22 kts 346°
2026-05-04 01:05 34.21789 -118.48941 802 ft 22 kts 356°
2026-05-04 01:05 34.21842 -118.48946 804 ft 0 kts 356°
2026-05-04 01:05 34.21866 -118.48950 805 ft 0 kts 349°
2026-05-04 01:06 34.21867 -118.48950 805 ft 2 kts 349°
2026-05-04 01:06 34.21848 -118.48995 804 ft 12 kts 196°
2026-05-04 01:07 34.21824 -118.48995 803 ft 0 kts 175°
2026-05-04 01:07 34.21820 -118.48994 803 ft 7 kts 174°
2026-05-04 01:07 34.21578 -118.48972 795 ft 61 kts 173°
2026-05-04 01:07 34.21095 -118.48923 967 ft 73 kts 170°
2026-05-04 01:08 34.20586 -118.48874 1217 ft 73 kts 175°
2026-05-04 01:08 34.20100 -118.48683 1446 ft 78 kts 135°
2026-05-04 01:08 34.19929 -118.48029 1642 ft 88 kts 96°
2026-05-04 01:08 34.19958 -118.47257 1849 ft 98 kts 75°
2026-05-04 01:09 34.20422 -118.46626 1977 ft 111 kts 19°
2026-05-04 01:09 34.21199 -118.46486 2116 ft 117 kts
2026-05-04 01:09 34.22021 -118.46397 2068 ft 118 kts
2026-05-04 01:09 34.22865 -118.46351 1881 ft 124 kts 359°
2026-05-04 01:10 34.23599 -118.46587 1843 ft 103 kts 317°
2026-05-04 01:10 34.23858 -118.47278 1868 ft 89 kts 270°
2026-05-04 01:10 34.23943 -118.48040 1909 ft 96 kts 271°
2026-05-04 01:10 34.23846 -118.48839 1711 ft 93 kts 234°
2026-05-04 01:11 34.23372 -118.49250 1457 ft 82 kts 191°
2026-05-04 01:11 34.22835 -118.49195 1266 ft 76 kts 164°
2026-05-04 01:11 34.22330 -118.49061 1077 ft 72 kts 172°
2026-05-04 01:11 34.21877 -118.49007 872 ft 59 kts 170°
2026-05-04 01:12 34.21512 -118.48972 795 ft 44 kts 169°
2026-05-04 01:12 34.21196 -118.48940 796 ft 58 kts 172°
2026-05-04 01:12 34.20759 -118.48882 1001 ft 64 kts 168°
2026-05-04 01:12 34.20406 -118.48570 1194 ft 77 kts 107°
2026-05-04 01:13 34.20439 -118.47883 1387 ft 92 kts 90°
2026-05-04 01:13 34.20555 -118.47060 1510 ft 108 kts 64°
2026-05-04 01:13 34.21271 -118.46651 1535 ft 125 kts
2026-05-04 01:13 34.22138 -118.46686 1415 ft 116 kts 359°
2026-05-04 01:14 34.22835 -118.46857 1374 ft 95 kts 330°
2026-05-04 01:14 34.23298 -118.47395 1350 ft 93 kts 299°
2026-05-04 01:14 34.23451 -118.48117 1346 ft 85 kts 253°
2026-05-04 01:14 34.23165 -118.48683 1325 ft 81 kts 213°
2026-05-04 01:15 34.22675 -118.48934 1168 ft 73 kts 190°
2026-05-04 01:15 34.22172 -118.48998 1006 ft 70 kts 179°
2026-05-04 01:15 34.21728 -118.48985 835 ft 57 kts 172°
2026-05-04 01:15 34.21394 -118.48962 791 ft 38 kts 175°
2026-05-04 01:16 34.21218 -118.48925 787 ft 30 kts 207°
2026-05-04 01:16 34.21072 -118.48924 786 ft 14 kts 175°
2026-05-04 01:16 34.21031 -118.48872 784 ft 9 kts 81°
2026-05-04 01:16 34.21069 -118.48844 784 ft 6 kts 339°
2026-05-04 01:17 34.21119 -118.48848 785 ft 9 kts
2026-05-04 01:17 34.21188 -118.48855 787 ft 10 kts 359°
2026-05-04 01:17 34.21248 -118.48860 788 ft 8 kts 354°
2026-05-04 01:17 34.21355 -118.48869 791 ft 22 kts 354°
2026-05-04 01:18 34.21509 -118.48886 795 ft 21 kts 355°
2026-05-04 01:18 34.21651 -118.48917 798 ft 24 kts 349°
2026-05-04 01:18 34.21817 -118.48944 803 ft 12 kts 353°
2026-05-04 01:18 34.21824 -118.48944 803 ft 4 kts 354°
2026-05-04 01:19 34.21865 -118.48950 805 ft 0 kts 353°
2026-05-04 01:19 34.21871 -118.48994 805 ft 22 kts 190°
2026-05-04 01:19 34.21554 -118.48975 825 ft 63 kts 172°
2026-05-04 01:19 34.21066 -118.48926 991 ft 77 kts 171°
2026-05-04 01:20 34.20576 -118.48673 1191 ft 83 kts 129°
2026-05-04 01:20 34.20459 -118.47983 1327 ft 88 kts 90°
2026-05-04 01:20 34.20543 -118.47228 1496 ft 92 kts 72°
2026-05-04 01:20 34.21090 -118.46880 1581 ft 95 kts 356°
2026-05-04 01:21 34.21728 -118.46892 1471 ft 89 kts
2026-05-04 01:21 34.22336 -118.46962 1434 ft 85 kts 341°
2026-05-04 01:21 34.22695 -118.47474 1401 ft 83 kts 277°
2026-05-04 01:21 34.22737 -118.48167 1321 ft 83 kts 267°
2026-05-04 01:22 34.22622 -118.48789 1249 ft 73 kts 227°
2026-05-04 01:22 34.22181 -118.48997 1043 ft 71 kts 185°
2026-05-04 01:22 34.21725 -118.48989 882 ft 60 kts 171°
2026-05-04 01:22 34.21336 -118.48955 793 ft 48 kts 162°
2026-05-04 01:23 34.21070 -118.48925 786 ft 41 kts 175°
2026-05-04 01:23 34.20708 -118.48903 885 ft 59 kts 168°
2026-05-04 01:23 34.20271 -118.48707 1049 ft 72 kts 136°
2026-05-04 01:23 34.20238 -118.48093 1269 ft 86 kts 75°
2026-05-04 01:24 34.20529 -118.47414 1478 ft 97 kts 33°
2026-05-04 01:24 34.21274 -118.47336 1505 ft 119 kts
2026-05-04 01:24 34.22096 -118.47330 1424 ft 114 kts
2026-05-04 01:24 34.22829 -118.47472 1417 ft 101 kts 323°
2026-05-04 01:25 34.23052 -118.48173 1434 ft 88 kts 269°
2026-05-04 01:25 34.22968 -118.48808 1334 ft 71 kts 218°
2026-05-04 01:25 34.22510 -118.49004 1228 ft 77 kts 184°
2026-05-04 01:25 34.21995 -118.49012 913 ft 71 kts 174°
2026-05-04 01:26 34.21571 -118.48971 804 ft 51 kts 174°
2026-05-04 01:26 34.21280 -118.48944 788 ft 34 kts 178°
2026-05-04 01:26 34.21092 -118.48928 786 ft 22 kts 178°
2026-05-04 01:26 34.21030 -118.48871 784 ft 12 kts 95°
2026-05-04 01:27 34.20981 -118.48835 782 ft 7 kts 175°
2026-05-04 01:27 34.20874 -118.48823 779 ft 16 kts 175°
2026-05-04 01:27 34.20756 -118.48820 776 ft 19 kts 180°
2026-05-04 01:27 34.20627 -118.48833 775 ft 18 kts 182°
2026-05-04 01:28 34.20581 -118.48785 774 ft 11 kts 63°
2026-05-04 01:28 34.20593 -118.48743 775 ft 0 kts 243°